createdAt,value
2023-04-15T00:00:58.441Z,4.53
2023-04-15T00:03:25.392Z,4.85
2023-04-15T00:05:52.077Z,4.93
2023-04-15T00:08:18.468Z,4.90
2023-04-15T00:10:46.478Z,4.90
2023-04-15T00:13:13.032Z,4.85
2023-04-15T00:15:39.473Z,4.93
2023-04-15T00:18:07.386Z,4.70
2023-04-15T00:20:34.324Z,4.40
2023-04-15T00:23:02.468Z,4.97
2023-04-15T00:25:29.109Z,5.78
2023-04-15T00:27:55.519Z,5.30
2023-04-15T00:30:21.983Z,5.05
2023-04-15T00:32:49.580Z,4.85
2023-04-15T00:35:16.450Z,4.60
2023-04-15T00:37:44.230Z,4.78
2023-04-15T00:40:12.960Z,4.03
2023-04-15T00:42:39.705Z,4.85
2023-04-15T00:45:07.017Z,4.25
2023-04-15T00:47:33.794Z,3.90
2023-04-15T00:50:00.269Z,3.55
2023-04-15T00:52:27.066Z,4.20
2023-04-15T00:54:53.672Z,4.35
2023-04-15T00:57:22.242Z,3.53
2023-04-15T00:59:48.908Z,3.60
2023-04-15T01:02:15.520Z,3.10
2023-04-15T01:04:42.147Z,3.72
2023-04-15T01:07:09.172Z,3.78
2023-04-15T01:09:35.725Z,3.60
2023-04-15T01:12:02.552Z,3.72
2023-04-15T01:14:29.080Z,3.70
2023-04-15T01:16:55.528Z,3.33
2023-04-15T01:19:22.040Z,3.78
2023-04-15T01:21:48.553Z,3.30
2023-04-15T01:24:18.183Z,4.07
2023-04-15T01:26:45.309Z,4.15
2023-04-15T01:29:11.755Z,3.60
2023-04-15T01:31:38.610Z,4.05
2023-04-15T01:34:05.082Z,3.70
2023-04-15T01:36:31.471Z,3.38
2023-04-15T01:38:58.509Z,3.65
2023-04-15T01:41:28.712Z,4.13
2023-04-15T01:43:56.597Z,3.90
2023-04-15T01:46:23.221Z,4.22
2023-04-15T01:48:49.958Z,4.18
2023-04-15T01:51:16.584Z,4.38
2023-04-15T01:53:42.998Z,3.67
2023-04-15T01:56:09.373Z,3.97
2023-04-15T01:58:38.372Z,3.50
2023-04-15T02:01:04.968Z,4.43
2023-04-15T02:03:31.614Z,3.95
2023-04-15T02:05:58.476Z,3.90
2023-04-15T02:08:24.908Z,3.70
2023-04-15T02:10:51.719Z,3.80
2023-04-15T02:13:18.147Z,3.92
2023-04-15T02:15:52.443Z,4.20
2023-04-15T02:18:18.908Z,3.92
2023-04-15T02:20:45.435Z,3.85
2023-04-15T02:23:11.874Z,3.58
2023-04-15T02:25:41.505Z,3.78
2023-04-15T02:28:08.025Z,3.55
2023-04-15T02:30:34.530Z,3.60
2023-04-15T02:33:01.895Z,3.70
2023-04-15T02:35:28.383Z,3.83
2023-04-15T02:37:54.848Z,3.47
2023-04-15T02:40:21.662Z,3.30
2023-04-15T02:42:48.101Z,3.22
2023-04-15T02:45:14.615Z,3.40
2023-04-15T02:47:41.585Z,3.38
2023-04-15T02:50:09.558Z,3.33
2023-04-15T02:52:36.036Z,3.30
2023-04-15T02:55:02.513Z,3.38
2023-04-15T02:57:31.844Z,3.35
2023-04-15T02:59:58.290Z,3.42
2023-04-15T03:02:24.885Z,3.60
2023-04-15T03:04:51.762Z,3.30
2023-04-15T03:07:18.494Z,3.13
2023-04-15T03:09:45.970Z,3.63
2023-04-15T03:12:12.481Z,3.00
2023-04-15T03:14:38.946Z,3.08
2023-04-15T03:17:05.373Z,3.65
2023-04-15T03:19:31.884Z,3.60
2023-04-15T03:21:58.355Z,3.38
2023-04-15T03:24:24.928Z,2.85
2023-04-15T03:26:51.443Z,3.63
2023-04-15T03:29:17.948Z,3.42
2023-04-15T03:31:44.350Z,3.20
2023-04-15T03:34:10.940Z,3.38
2023-04-15T03:36:37.428Z,3.40
2023-04-15T03:39:04.215Z,3.30
2023-04-15T03:41:30.857Z,3.30
2023-04-15T03:43:57.338Z,3.38
2023-04-15T03:46:23.894Z,3.45
2023-04-15T03:48:50.553Z,3.15
2023-04-15T03:51:17.017Z,2.90
2023-04-15T03:53:43.426Z,3.03
2023-04-15T03:56:09.859Z,3.30
2023-04-15T03:58:36.605Z,3.00
2023-04-15T04:01:03.011Z,3.58
2023-04-15T04:03:29.624Z,3.53
2023-04-15T04:05:56.283Z,3.83
2023-04-15T04:08:22.722Z,3.65
2023-04-15T04:10:49.109Z,3.40
2023-04-15T04:13:15.601Z,3.55
2023-04-15T04:15:42.068Z,3.20
2023-04-15T04:18:08.607Z,3.60
2023-04-15T04:20:35.129Z,3.50
2023-04-15T04:23:01.549Z,3.50
2023-04-15T04:25:28.151Z,3.10
2023-04-15T04:27:54.563Z,3.78
2023-04-15T04:30:21.346Z,3.45
2023-04-15T04:32:47.858Z,3.50
2023-04-15T04:35:14.355Z,3.20
2023-04-15T04:37:40.766Z,3.20
2023-04-15T04:40:09.461Z,3.58
2023-04-15T04:42:37.460Z,2.83
2023-04-15T04:45:06.167Z,3.30
2023-04-15T04:47:32.573Z,3.42
2023-04-15T04:49:59.021Z,3.65
2023-04-15T04:52:25.587Z,3.60
2023-04-15T04:54:52.023Z,3.30
2023-04-15T04:57:18.506Z,3.40
2023-04-15T04:59:44.930Z,3.20
2023-04-15T05:02:11.497Z,3.20
2023-04-15T05:04:38.274Z,3.25
2023-04-15T05:07:04.801Z,3.67
2023-04-15T05:09:32.475Z,3.40
2023-04-15T05:11:59.394Z,3.60
2023-04-15T05:14:25.948Z,3.40
2023-04-15T05:16:52.318Z,2.88
2023-04-15T05:19:18.747Z,3.38
2023-04-15T05:21:45.219Z,3.45
2023-04-15T05:24:11.626Z,2.90
2023-04-15T05:26:38.042Z,2.92
2023-04-15T05:29:04.503Z,2.72
2023-04-15T05:31:31.234Z,2.80
2023-04-15T05:33:57.697Z,3.30
2023-04-15T05:36:24.126Z,3.17
2023-04-15T05:38:50.869Z,2.80
2023-04-15T05:41:19.731Z,2.70
2023-04-15T05:43:46.470Z,2.88
2023-04-15T05:46:13.043Z,3.40
2023-04-15T05:48:39.530Z,3.30
2023-04-15T05:51:06.363Z,3.20
2023-04-15T05:53:32.856Z,2.83
2023-04-15T05:55:59.392Z,2.63
2023-04-15T05:58:25.986Z,2.78
2023-04-15T06:00:52.662Z,2.80
2023-04-15T06:03:19.169Z,2.63
2023-04-15T06:05:45.636Z,2.47
2023-04-15T06:08:12.482Z,2.80
2023-04-15T06:10:38.974Z,3.13
2023-04-15T06:13:05.835Z,2.80
2023-04-15T06:15:32.318Z,2.65
2023-04-15T06:17:59.313Z,2.42
2023-04-15T06:20:26.113Z,2.92
2023-04-15T06:22:52.601Z,2.67
2023-04-15T06:25:19.144Z,3.00
2023-04-15T06:27:45.529Z,2.80
2023-04-15T06:30:12.801Z,2.67
2023-04-15T06:32:39.481Z,3.03
2023-04-15T06:35:06.048Z,3.08
2023-04-15T06:37:32.668Z,2.72
2023-04-15T06:39:59.137Z,2.70
2023-04-15T06:42:25.699Z,2.90
2023-04-15T06:44:52.144Z,2.65
2023-04-15T06:47:19.749Z,2.70
2023-04-15T06:49:46.335Z,3.03
2023-04-15T06:52:12.968Z,3.35
2023-04-15T06:54:39.405Z,3.30
2023-04-15T06:57:07.052Z,3.00
2023-04-15T06:59:33.501Z,2.78
2023-04-15T07:02:00.043Z,2.83
2023-04-15T07:04:26.476Z,2.90
2023-04-15T07:06:52.952Z,2.70
2023-04-15T07:09:19.797Z,2.10
2023-04-15T07:11:46.228Z,2.00
2023-04-15T07:14:12.692Z,2.42
2023-04-15T07:16:39.198Z,2.45
2023-04-15T07:19:05.821Z,2.13
2023-04-15T07:21:32.518Z,2.25
2023-04-15T07:23:58.934Z,2.65
2023-04-15T07:26:25.377Z,2.65
2023-04-15T07:28:52.077Z,2.10
2023-04-15T07:31:18.596Z,2.00
2023-04-15T07:33:45.481Z,1.70
2023-04-15T07:36:11.940Z,1.92
2023-04-15T07:38:38.400Z,2.30
2023-04-15T07:41:04.869Z,2.10
2023-04-15T07:43:31.356Z,2.25
2023-04-15T07:45:57.855Z,1.98
2023-04-15T07:48:24.319Z,2.15
2023-04-15T07:50:53.243Z,1.92
2023-04-15T07:53:20.289Z,1.73
2023-04-15T07:55:46.684Z,2.20
2023-04-15T07:58:13.138Z,1.90
2023-04-15T08:00:40.218Z,2.13
2023-04-15T08:03:07.723Z,2.17
2023-04-15T08:05:34.484Z,2.20
2023-04-15T08:08:02.595Z,1.95
2023-04-15T08:10:29.920Z,2.20
2023-04-15T08:12:56.545Z,2.20
2023-04-15T08:15:23.479Z,2.13
2023-04-15T08:17:49.894Z,2.45
2023-04-15T08:20:16.486Z,2.30
2023-04-15T08:22:43.300Z,2.35
2023-04-15T08:25:10.290Z,2.17
2023-04-15T08:27:36.719Z,1.90
2023-04-15T08:30:05.079Z,1.70
2023-04-15T08:32:31.936Z,1.70
2023-04-15T08:34:58.402Z,2.05
2023-04-15T08:37:24.821Z,1.85
2023-04-15T08:39:51.250Z,1.70
2023-04-15T08:42:19.762Z,1.80
2023-04-15T08:44:46.393Z,2.05
2023-04-15T08:47:14.702Z,1.80
2023-04-15T08:49:43.111Z,2.05
2023-04-15T08:52:09.707Z,1.88
2023-04-15T08:54:36.688Z,1.95
2023-04-15T08:57:03.780Z,2.50
2023-04-15T08:59:31.008Z,1.67
2023-04-15T09:01:58.159Z,1.83
2023-04-15T09:04:24.649Z,2.05
2023-04-15T09:06:52.238Z,2.13
2023-04-15T09:09:18.660Z,1.77
2023-04-15T09:11:45.420Z,1.98
2023-04-15T09:14:12.235Z,1.85
2023-04-15T09:17:02.485Z,1.92
2023-04-15T09:19:29.559Z,1.98
2023-04-15T09:21:59.278Z,1.65
2023-04-15T09:24:34.274Z,1.60
2023-04-15T09:27:01.060Z,1.70
2023-04-15T09:29:27.576Z,1.52
2023-04-15T09:31:54.080Z,1.38
2023-04-15T09:34:21.424Z,1.88
2023-04-15T09:36:49.728Z,1.70
2023-04-15T09:39:17.376Z,1.50
2023-04-15T09:41:44.590Z,1.58
2023-04-15T09:44:24.406Z,1.70
2023-04-15T09:46:50.915Z,1.60
2023-04-15T09:49:17.950Z,1.58
2023-04-15T09:51:54.125Z,1.85
2023-04-15T09:54:36.190Z,1.90
2023-04-15T09:57:07.194Z,1.42
2023-04-15T09:59:33.753Z,1.75
2023-04-15T10:02:00.517Z,1.50
2023-04-15T10:04:28.552Z,1.40
2023-04-15T10:06:55.153Z,1.40
2023-04-15T10:09:21.675Z,1.38
2023-04-15T10:11:49.746Z,1.38
2023-04-15T10:14:16.531Z,1.42
2023-04-15T10:16:45.948Z,1.45
2023-04-15T10:19:12.614Z,1.38
2023-04-15T10:21:39.254Z,1.40
2023-04-15T10:24:06.254Z,1.45
2023-04-15T10:26:32.913Z,1.50
2023-04-15T10:29:00.119Z,1.65
2023-04-15T10:31:26.943Z,1.55
2023-04-15T10:33:53.552Z,1.45
2023-04-15T10:36:20.616Z,1.60
2023-04-15T10:38:47.378Z,1.30
2023-04-15T10:41:18.736Z,2.05
2023-04-15T10:43:57.841Z,1.85
2023-04-15T10:46:42.037Z,1.50
2023-04-15T10:49:08.905Z,1.80
2023-04-15T10:51:41.438Z,1.50
2023-04-15T10:54:16.248Z,1.80
2023-04-15T10:56:43.893Z,1.60
2023-04-15T10:59:10.501Z,1.65
2023-04-15T11:02:07.303Z,1.40
2023-04-15T11:04:56.025Z,1.58
2023-04-15T11:07:39.211Z,1.50
2023-04-15T11:10:17.793Z,1.77
2023-04-15T11:12:51.287Z,1.17
2023-04-15T11:15:43.019Z,1.85
2023-04-15T11:18:14.051Z,1.70
2023-04-15T11:20:42.111Z,1.30
2023-04-15T11:23:15.181Z,1.35
2023-04-15T11:25:43.064Z,2.47
2023-04-15T11:28:10.929Z,1.73
2023-04-15T11:30:38.196Z,1.60
2023-04-15T11:33:09.789Z,1.73
2023-04-15T11:35:36.455Z,1.75
2023-04-15T11:38:04.321Z,1.90
2023-04-15T11:40:33.215Z,1.35
2023-04-15T11:43:16.128Z,1.42
2023-04-15T11:45:56.303Z,1.40
2023-04-15T11:48:27.825Z,1.80
2023-04-15T11:51:13.522Z,1.65
2023-04-15T11:53:49.556Z,1.40
2023-04-15T11:56:22.999Z,1.40
2023-04-15T11:58:59.470Z,1.70
2023-04-15T12:01:36.793Z,1.25
2023-04-15T12:04:11.892Z,1.40
2023-04-15T12:06:39.337Z,1.48
2023-04-15T12:09:10.516Z,1.40
2023-04-15T12:11:40.859Z,1.50
2023-04-15T12:14:16.603Z,1.33
2023-04-15T12:16:48.891Z,1.55
2023-04-15T12:19:27.701Z,1.30
2023-04-15T12:22:01.983Z,1.60
2023-04-15T12:24:31.790Z,1.52
2023-04-15T12:27:02.714Z,1.90
2023-04-15T12:29:30.152Z,2.05
2023-04-15T12:31:58.645Z,1.60
2023-04-15T12:34:30.151Z,1.50
2023-04-15T12:36:57.687Z,1.70
2023-04-15T12:39:34.773Z,1.67
2023-04-15T12:42:01.557Z,1.63
2023-04-15T12:44:28.749Z,1.65
2023-04-15T12:46:55.618Z,1.65
2023-04-15T12:49:23.397Z,1.30
2023-04-15T12:51:51.061Z,2.20
2023-04-15T12:54:18.544Z,2.08
2023-04-15T12:56:46.337Z,1.83
2023-04-15T12:59:13.222Z,1.95
2023-04-15T13:01:40.104Z,1.52
2023-04-15T13:04:06.710Z,1.73
2023-04-15T13:06:33.434Z,2.00
2023-04-15T13:09:01.905Z,2.17
2023-04-15T13:11:31.097Z,1.70
2023-04-15T13:13:57.695Z,2.08
2023-04-15T13:16:24.762Z,1.50
2023-04-15T13:18:51.227Z,1.70
2023-04-15T13:21:19.883Z,1.83
2023-04-15T13:23:46.446Z,1.48
2023-04-15T13:26:12.950Z,1.60
2023-04-15T13:28:39.481Z,1.40
2023-04-15T13:31:06.284Z,1.50
2023-04-15T13:33:32.729Z,1.63
2023-04-15T13:35:59.154Z,1.60
2023-04-15T13:38:25.925Z,1.48
2023-04-15T13:40:52.369Z,1.83
2023-04-15T13:43:18.870Z,1.30
2023-04-15T13:45:46.984Z,1.42
2023-04-15T13:48:13.607Z,1.40
2023-04-15T13:50:41.710Z,1.27
2023-04-15T13:53:09.380Z,1.60
2023-04-15T13:55:35.862Z,1.45
2023-04-15T13:58:02.246Z,1.50
2023-04-15T14:00:28.707Z,1.27
2023-04-15T14:02:55.317Z,1.10
2023-04-15T14:05:21.970Z,1.83
2023-04-15T14:07:48.444Z,1.20
2023-04-15T14:10:14.891Z,1.30
2023-04-15T14:12:41.280Z,1.00
2023-04-15T14:15:08.265Z,1.10
2023-04-15T14:17:34.818Z,1.30
2023-04-15T14:20:01.306Z,1.20
2023-04-15T14:22:27.725Z,1.20
2023-04-15T14:24:55.546Z,1.30
2023-04-15T14:27:22.135Z,1.23
2023-04-15T14:29:48.541Z,1.40
2023-04-15T14:32:16.131Z,1.30
2023-04-15T14:34:43.696Z,1.20
2023-04-15T14:37:10.238Z,1.63
2023-04-15T14:39:36.695Z,1.50
2023-04-15T14:42:03.210Z,1.17
2023-04-15T14:44:32.489Z,1.48
2023-04-15T14:46:58.976Z,1.77
2023-04-15T14:49:25.971Z,1.60
2023-04-15T14:51:52.395Z,1.63
2023-04-15T14:54:19.731Z,1.60
2023-04-15T14:56:47.130Z,1.60
2023-04-15T14:59:14.411Z,1.65
2023-04-15T15:01:40.882Z,1.50
2023-04-15T15:04:07.371Z,2.00
2023-04-15T15:06:34.505Z,1.92
2023-04-15T15:09:02.059Z,2.00
2023-04-15T15:11:29.560Z,2.17
2023-04-15T15:13:56.937Z,2.03
2023-04-15T15:16:23.424Z,1.77
2023-04-15T15:18:51.313Z,1.90
2023-04-15T15:21:18.146Z,1.50
2023-04-15T15:23:45.012Z,1.63
2023-04-15T15:26:12.130Z,1.50
2023-04-15T15:28:38.574Z,2.60
2023-04-15T15:31:05.490Z,1.95
2023-04-15T15:33:32.730Z,1.65
2023-04-15T15:35:59.284Z,1.50
2023-04-15T15:38:26.276Z,1.60
2023-04-15T15:40:52.700Z,1.58
2023-04-15T15:43:19.148Z,1.13
2023-04-15T15:45:45.698Z,1.40
2023-04-15T15:48:12.146Z,1.45
2023-04-15T15:50:38.630Z,1.40
2023-04-15T15:53:05.065Z,1.58
2023-04-15T15:55:31.469Z,1.23
2023-04-15T15:57:57.877Z,2.00
2023-04-15T16:00:24.370Z,1.70
2023-04-15T16:05:24.257Z,1.58
2023-04-15T16:07:50.818Z,1.40
2023-04-15T16:10:17.302Z,1.60
2023-04-15T16:12:44.142Z,1.90
2023-04-15T16:15:11.025Z,1.90
2023-04-15T16:17:37.529Z,1.70
2023-04-15T16:20:06.872Z,2.00
2023-04-15T16:22:34.506Z,2.35
2023-04-15T16:25:01.056Z,2.20
2023-04-15T16:27:28.082Z,2.30
2023-04-15T16:29:54.513Z,2.25
2023-04-15T16:32:21.148Z,2.22
2023-04-15T16:34:47.817Z,2.30
2023-04-15T16:37:14.242Z,2.60
2023-04-15T16:39:40.794Z,2.55
2023-04-15T16:42:07.699Z,2.45
2023-04-15T16:44:34.083Z,2.55
2023-04-15T16:47:02.210Z,2.70
2023-04-15T16:49:29.750Z,2.58
2023-04-15T16:51:56.204Z,2.85
2023-04-15T16:54:22.759Z,2.92
2023-04-15T16:56:49.290Z,3.17
2023-04-15T16:59:15.791Z,2.30
2023-04-15T17:01:42.427Z,3.25
2023-04-15T17:04:09.004Z,3.08
2023-04-15T17:06:35.683Z,3.00
2023-04-15T17:09:02.357Z,2.90
2023-04-15T17:11:28.951Z,2.63
2023-04-15T17:13:55.447Z,2.85
2023-04-15T17:16:21.961Z,3.00
2023-04-15T17:18:50.484Z,2.90
2023-04-15T17:21:17.653Z,2.97
2023-04-15T17:23:44.098Z,2.70
2023-04-15T17:26:10.745Z,2.92
2023-04-15T17:28:37.854Z,2.65
2023-04-15T17:31:04.727Z,2.20
2023-04-15T17:34:01.091Z,2.30
2023-04-15T17:36:17.659Z,2.28
2023-04-15T17:38:44.197Z,2.10
2023-04-15T17:41:10.814Z,1.60
2023-04-15T17:43:37.230Z,1.60
2023-04-15T17:46:05.317Z,1.70
2023-04-15T17:48:31.725Z,1.58
2023-04-15T17:50:58.679Z,1.70
2023-04-15T17:53:25.314Z,1.60
2023-04-15T17:55:53.106Z,1.50
2023-04-15T17:58:20.230Z,1.40
2023-04-15T18:00:47.019Z,1.40
2023-04-15T18:03:14.007Z,1.60
2023-04-15T18:05:42.543Z,1.45
2023-04-15T18:08:09.438Z,1.58
2023-04-15T18:10:36.014Z,1.80
2023-04-15T18:13:03.346Z,1.52
2023-04-15T18:15:33.431Z,1.52
2023-04-15T18:18:00.278Z,1.48
2023-04-15T18:20:26.745Z,1.48
2023-04-15T18:22:53.935Z,1.40
2023-04-15T18:25:20.384Z,1.38
2023-04-15T18:27:46.923Z,1.48
2023-04-15T18:30:13.418Z,1.48
2023-04-15T18:32:40.950Z,1.75
2023-04-15T18:35:07.938Z,1.73
2023-04-15T18:37:34.449Z,1.77
2023-04-15T18:40:00.949Z,2.00
2023-04-15T18:42:27.399Z,1.88
2023-04-15T18:44:54.042Z,1.80
2023-04-15T18:47:20.704Z,1.40
2023-04-15T18:49:47.161Z,1.50
2023-04-15T18:52:13.575Z,1.50
2023-04-15T18:54:39.983Z,1.70
2023-04-15T18:57:06.711Z,1.58
2023-04-15T18:59:33.766Z,1.52
2023-04-15T19:02:00.468Z,1.70
2023-04-15T19:04:28.852Z,1.85
2023-04-15T19:06:55.888Z,1.88
2023-04-15T19:09:22.289Z,1.95
2023-04-15T19:11:48.882Z,1.75
2023-04-15T19:14:15.370Z,2.00
2023-04-15T19:16:41.795Z,2.15
2023-04-15T19:19:08.198Z,2.10
2023-04-15T19:21:34.750Z,2.25
2023-04-15T19:24:01.326Z,2.10
2023-04-15T19:26:27.787Z,1.90
2023-04-15T19:28:54.888Z,2.17
2023-04-15T19:31:21.324Z,2.25
2023-04-15T19:33:47.788Z,2.50
2023-04-15T19:36:14.409Z,2.70
2023-04-15T19:38:40.919Z,2.22
2023-04-15T19:41:09.608Z,2.78
2023-04-15T19:43:36.186Z,2.40
2023-04-15T19:46:02.656Z,2.10
2023-04-15T19:48:29.084Z,2.58
2023-04-15T19:50:56.745Z,1.95
2023-04-15T19:53:23.153Z,2.28
2023-04-15T19:55:49.574Z,2.10
2023-04-15T19:58:16.203Z,2.40
2023-04-15T20:00:42.642Z,2.00
2023-04-15T20:03:09.149Z,2.42
2023-04-15T20:05:35.970Z,2.42
2023-04-15T20:08:02.508Z,2.88
2023-04-15T20:10:31.050Z,2.10
2023-04-15T20:12:57.548Z,2.00
2023-04-15T20:15:24.266Z,2.20
2023-04-15T20:17:51.114Z,2.30
2023-04-15T20:20:17.672Z,2.60
2023-04-15T20:22:44.268Z,2.42
2023-04-15T20:25:10.799Z,2.40
2023-04-15T20:27:37.248Z,2.42
2023-04-15T20:30:04.965Z,2.22
2023-04-15T20:32:35.844Z,2.25
2023-04-15T20:35:04.209Z,2.25
2023-04-15T20:37:32.977Z,2.42
2023-04-15T20:40:00.279Z,2.50
2023-04-15T20:42:26.869Z,2.38
2023-04-15T20:44:53.312Z,1.90
2023-04-15T20:47:19.897Z,2.55
2023-04-15T20:49:47.369Z,2.50
2023-04-15T20:52:13.866Z,2.70
2023-04-15T20:54:40.325Z,2.78
2023-04-15T20:57:06.829Z,2.38
2023-04-15T20:59:34.627Z,2.35
2023-04-15T21:02:01.356Z,2.20
2023-04-15T21:04:27.854Z,2.40
2023-04-15T21:06:54.255Z,2.60
2023-04-15T21:09:20.691Z,2.88
2023-04-15T21:12:00.432Z,2.63
2023-04-15T21:14:28.432Z,2.67
2023-04-15T21:16:54.986Z,3.00
2023-04-15T21:19:21.428Z,2.53
2023-04-15T21:21:47.865Z,2.63
2023-04-15T21:24:14.385Z,2.40
2023-04-15T21:26:40.924Z,2.50
2023-04-15T21:29:10.540Z,2.70
2023-04-15T21:31:38.077Z,2.60
2023-04-15T21:34:05.392Z,2.70
2023-04-15T21:36:31.941Z,2.67
2023-04-15T21:38:58.486Z,2.30
2023-04-15T21:41:25.168Z,2.60
2023-04-15T21:43:51.599Z,2.63
2023-04-15T21:46:24.138Z,2.80
2023-04-15T21:48:55.170Z,2.70
2023-04-15T21:51:21.902Z,2.90
2023-04-15T21:53:48.500Z,2.70
2023-04-15T21:56:15.185Z,2.50
2023-04-15T21:58:41.648Z,2.60
2023-04-15T22:01:08.085Z,2.90
2023-04-15T22:03:35.649Z,2.78
2023-04-15T22:06:03.325Z,2.80
2023-04-15T22:08:38.178Z,2.97
2023-04-15T22:11:18.653Z,2.80
2023-04-15T22:13:45.302Z,2.60
2023-04-15T22:16:11.839Z,2.65
2023-04-15T22:18:38.241Z,2.95
2023-04-15T22:21:04.665Z,2.63
2023-04-15T22:23:31.084Z,2.80
2023-04-15T22:25:57.742Z,2.67
2023-04-15T22:28:24.124Z,2.45
2023-04-15T22:30:50.524Z,2.90
2023-04-15T22:33:17.005Z,2.65
2023-04-15T22:35:43.398Z,2.50
2023-04-15T22:38:09.815Z,2.30
2023-04-15T22:40:36.259Z,2.38
2023-04-15T22:43:02.708Z,2.30
2023-04-15T22:45:29.121Z,2.55
2023-04-15T22:47:55.665Z,2.60
2023-04-15T22:50:22.225Z,2.50
2023-04-15T22:52:48.747Z,2.22
2023-04-15T22:55:15.501Z,2.17
2023-04-15T22:57:41.894Z,2.47
2023-04-15T23:00:09.203Z,2.20
2023-04-15T23:02:35.865Z,2.13
2023-04-15T23:05:05.031Z,2.47
2023-04-15T23:07:39.688Z,2.40
2023-04-15T23:10:07.895Z,2.20
2023-04-15T23:12:34.349Z,2.13
2023-04-15T23:15:00.898Z,2.38
2023-04-15T23:17:27.473Z,2.40
2023-04-15T23:19:53.956Z,2.58
2023-04-15T23:22:20.459Z,2.10
2023-04-15T23:24:46.917Z,2.25
2023-04-15T23:27:13.322Z,2.30
2023-04-15T23:29:39.812Z,2.40
2023-04-15T23:32:06.603Z,2.35
2023-04-15T23:34:33.016Z,2.40
2023-04-15T23:36:59.469Z,2.35
2023-04-15T23:39:25.913Z,3.70
2023-04-15T23:41:52.822Z,23.20
2023-04-15T23:44:19.757Z,10.02
2023-04-15T23:46:46.311Z,7.80
2023-04-15T23:49:12.849Z,2.97
2023-04-15T23:51:39.384Z,2.72
2023-04-15T23:54:05.809Z,2.10
2023-04-15T23:56:32.298Z,2.20
2023-04-15T23:58:58.806Z,2.05
